createdAt,value
2019-03-22T00:00:23.188Z,93.20
2019-03-22T00:02:53.755Z,88.10
2019-03-22T00:05:24.444Z,97.60
2019-03-22T00:07:55.131Z,87.43
2019-03-22T00:10:25.799Z,91.30
2019-03-22T00:12:56.553Z,91.00
2019-03-22T00:15:27.250Z,87.03
2019-03-22T00:17:58.005Z,80.77
2019-03-22T00:20:28.602Z,85.20
2019-03-22T00:22:59.207Z,74.90
2019-03-22T00:25:29.860Z,79.33
2019-03-22T00:28:00.484Z,82.00
2019-03-22T00:30:31.145Z,86.70
2019-03-22T00:33:02.096Z,90.47
2019-03-22T00:35:32.740Z,86.33
2019-03-22T00:38:03.362Z,86.20
2019-03-22T00:40:33.973Z,86.37
2019-03-22T00:43:04.727Z,85.97
2019-03-22T00:45:35.306Z,85.53
2019-03-22T00:48:06.366Z,88.03
2019-03-22T00:50:36.986Z,82.83
2019-03-22T00:53:09.446Z,90.17
2019-03-22T00:55:40.156Z,85.60
2019-03-22T00:58:10.833Z,85.73
2019-03-22T01:00:41.494Z,83.33
2019-03-22T01:03:12.108Z,82.63
2019-03-22T01:05:42.736Z,78.73
2019-03-22T01:08:14.041Z,77.10
2019-03-22T01:10:44.612Z,76.70
2019-03-22T01:13:15.285Z,89.27
2019-03-22T01:15:45.960Z,93.00
2019-03-22T01:18:16.734Z,84.50
2019-03-22T01:20:47.496Z,79.90
2019-03-22T01:23:18.206Z,89.53
2019-03-22T01:25:48.845Z,90.47
2019-03-22T01:28:19.441Z,83.60
2019-03-22T01:30:50.075Z,84.47
2019-03-22T01:33:20.798Z,92.93
2019-03-22T01:35:51.482Z,85.93
2019-03-22T01:38:22.142Z,116.80
2019-03-22T01:40:52.744Z,103.60
2019-03-22T01:43:23.758Z,102.80
2019-03-22T01:45:54.367Z,115.17
2019-03-22T01:48:25.096Z,118.23
2019-03-22T01:50:55.689Z,107.43
2019-03-22T01:53:26.402Z,111.57
2019-03-22T01:55:57.006Z,115.07
2019-03-22T01:58:29.363Z,105.23
2019-03-22T02:01:00.006Z,119.97
2019-03-22T02:03:30.622Z,121.63
2019-03-22T02:06:01.297Z,110.87
2019-03-22T02:08:31.964Z,109.33
2019-03-22T02:11:02.589Z,101.17
2019-03-22T02:13:33.173Z,99.47
2019-03-22T02:16:03.749Z,93.67
2019-03-22T02:18:34.335Z,93.57
2019-03-22T02:21:05.010Z,93.37
2019-03-22T02:23:36.535Z,87.73
2019-03-22T02:26:07.208Z,70.70
2019-03-22T02:28:37.860Z,66.73
2019-03-22T02:31:08.583Z,65.53
2019-03-22T02:33:39.276Z,59.93
2019-03-22T02:36:10.037Z,60.23
2019-03-22T02:38:40.748Z,54.27
2019-03-22T02:41:11.411Z,51.53
2019-03-22T02:43:42.270Z,52.17
2019-03-22T02:46:12.976Z,51.73
2019-03-22T02:48:43.570Z,47.87
2019-03-22T02:51:16.473Z,45.33
2019-03-22T02:53:47.224Z,69.83
2019-03-22T02:56:18.572Z,45.20
2019-03-22T02:58:49.283Z,47.00
2019-03-22T03:01:19.957Z,46.23
2019-03-22T03:03:50.572Z,53.17
2019-03-22T03:06:21.167Z,57.87
2019-03-22T03:08:51.913Z,69.27
2019-03-22T03:11:22.627Z,76.93
2019-03-22T03:13:53.289Z,73.53
2019-03-22T03:16:23.921Z,89.03
2019-03-22T03:18:54.755Z,88.20
2019-03-22T03:21:25.517Z,58.50
2019-03-22T03:23:56.115Z,51.50
2019-03-22T03:26:26.777Z,45.87
2019-03-22T03:29:05.016Z,46.53
2019-03-22T03:31:35.720Z,41.90
2019-03-22T03:34:06.411Z,44.97
2019-03-22T03:36:36.955Z,44.80
2019-03-22T03:39:08.992Z,92.40
2019-03-22T03:41:39.617Z,133.20
2019-03-22T03:44:10.318Z,48.20
2019-03-22T03:46:40.966Z,54.37
2019-03-22T03:49:11.626Z,48.03
2019-03-22T03:51:42.259Z,43.10
2019-03-22T03:54:12.903Z,46.23
2019-03-22T03:56:43.493Z,49.57
2019-03-22T03:59:14.134Z,51.10
2019-03-22T04:01:44.805Z,63.40
2019-03-22T04:04:15.574Z,53.20
2019-03-22T04:06:46.196Z,57.00
2019-03-22T04:09:16.842Z,57.40
2019-03-22T04:11:47.448Z,52.77
2019-03-22T04:14:18.064Z,55.40
2019-03-22T04:16:48.704Z,61.27
2019-03-22T04:19:19.313Z,60.37
2019-03-22T04:21:49.979Z,59.53
2019-03-22T04:24:20.571Z,60.67
2019-03-22T04:26:51.190Z,57.90
2019-03-22T04:29:21.888Z,55.10
2019-03-22T04:31:52.577Z,75.67
2019-03-22T04:34:23.317Z,60.50
2019-03-22T04:36:54.004Z,72.67
2019-03-22T04:39:24.681Z,61.70
2019-03-22T04:41:55.236Z,50.00
2019-03-22T04:44:25.889Z,53.17
2019-03-22T04:46:57.202Z,51.60
2019-03-22T04:49:28.928Z,70.63
2019-03-22T04:51:59.803Z,78.93
2019-03-22T04:54:33.362Z,49.90
2019-03-22T04:57:06.648Z,59.97
2019-03-22T04:59:38.493Z,57.33
2019-03-22T05:02:09.567Z,56.07
2019-03-22T05:04:42.028Z,54.10
2019-03-22T05:07:12.975Z,49.93
2019-03-22T05:09:44.622Z,53.43
2019-03-22T05:12:18.230Z,55.23
2019-03-22T05:14:49.189Z,48.60
2019-03-22T05:17:20.102Z,55.83
2019-03-22T05:19:53.831Z,58.93
2019-03-22T05:22:26.331Z,56.23
2019-03-22T05:24:58.585Z,56.60
2019-03-22T05:27:32.038Z,58.37
2019-03-22T05:30:03.914Z,52.17
2019-03-22T05:32:38.369Z,57.77
2019-03-22T05:35:10.738Z,64.07
2019-03-22T05:37:41.331Z,59.80
2019-03-22T05:40:12.114Z,65.90
2019-03-22T05:42:42.710Z,86.00
2019-03-22T05:45:13.403Z,66.67
2019-03-22T05:47:44.010Z,67.30
2019-03-22T05:50:14.660Z,73.40
2019-03-22T05:52:45.239Z,158.03
2019-03-22T05:55:15.817Z,164.37
2019-03-22T05:57:46.419Z,122.70
2019-03-22T06:00:17.816Z,93.90
2019-03-22T06:02:48.514Z,113.87
2019-03-22T06:05:19.244Z,163.63
2019-03-22T06:07:49.997Z,106.53
2019-03-22T06:10:20.785Z,95.40
2019-03-22T06:12:51.408Z,81.83
2019-03-22T06:15:21.980Z,87.97
2019-03-22T06:17:52.622Z,109.83
2019-03-22T06:20:23.227Z,89.57
2019-03-22T06:22:53.875Z,93.57
2019-03-22T06:25:24.859Z,130.20
2019-03-22T06:27:59.158Z,118.37
2019-03-22T06:30:29.763Z,98.63
2019-03-22T06:33:00.482Z,96.20
2019-03-22T06:35:31.147Z,101.50
2019-03-22T06:38:01.880Z,92.87
2019-03-22T06:40:32.824Z,83.27
2019-03-22T06:43:03.605Z,82.47
2019-03-22T06:45:34.753Z,81.50
2019-03-22T06:48:05.749Z,72.63
2019-03-22T06:50:36.480Z,74.67
2019-03-22T06:53:07.363Z,68.50
2019-03-22T06:55:38.149Z,67.40
2019-03-22T06:58:08.918Z,77.00
2019-03-22T07:00:40.007Z,67.53
2019-03-22T07:03:10.632Z,67.50
2019-03-22T07:05:41.198Z,65.80
2019-03-22T07:08:11.841Z,60.50
2019-03-22T07:10:42.458Z,58.10
2019-03-22T07:13:13.966Z,61.97
2019-03-22T07:15:45.063Z,55.10
2019-03-22T07:18:15.696Z,54.10
2019-03-22T07:20:46.478Z,50.93
2019-03-22T07:23:17.210Z,48.83
2019-03-22T07:25:48.045Z,47.20
2019-03-22T07:28:18.805Z,48.57
2019-03-22T07:30:49.408Z,49.87
2019-03-22T07:33:20.043Z,48.30
2019-03-22T07:35:50.706Z,50.90
2019-03-22T07:38:21.412Z,50.57
2019-03-22T07:40:52.103Z,51.27
2019-03-22T07:43:22.716Z,46.67
2019-03-22T07:45:53.395Z,46.33
2019-03-22T07:48:24.249Z,44.07
2019-03-22T07:50:55.004Z,44.87
2019-03-22T07:53:25.669Z,40.43
2019-03-22T07:55:56.356Z,41.73
2019-03-22T07:58:26.983Z,47.60
2019-03-22T08:00:58.644Z,44.93
2019-03-22T08:03:29.377Z,46.47
2019-03-22T08:06:00.062Z,47.77
2019-03-22T08:08:30.697Z,43.13
2019-03-22T08:11:01.348Z,44.77
2019-03-22T08:13:32.074Z,43.00
2019-03-22T08:16:02.795Z,41.30
2019-03-22T08:18:33.462Z,43.60
2019-03-22T08:21:04.315Z,45.03
2019-03-22T08:23:34.945Z,43.80
2019-03-22T08:26:05.656Z,41.27
2019-03-22T08:28:36.355Z,45.53
2019-03-22T08:31:06.968Z,40.30
2019-03-22T08:33:37.751Z,37.70
2019-03-22T08:36:08.432Z,38.97
2019-03-22T08:38:39.129Z,37.53
2019-03-22T08:41:09.749Z,40.50
2019-03-22T08:43:40.565Z,37.27
2019-03-22T08:46:11.191Z,39.37
2019-03-22T08:48:41.892Z,38.87
2019-03-22T08:51:12.482Z,40.47
2019-03-22T08:53:54.576Z,39.43
2019-03-22T08:56:15.575Z,40.17
2019-03-22T08:58:46.398Z,41.00
2019-03-22T09:01:17.059Z,40.33
2019-03-22T09:03:47.815Z,41.33
2019-03-22T09:06:18.521Z,43.43
2019-03-22T09:08:49.243Z,43.87
2019-03-22T09:11:20.001Z,49.47
2019-03-22T09:13:53.581Z,48.30
2019-03-22T09:16:22.960Z,47.93
2019-03-22T09:18:53.699Z,48.30
2019-03-22T09:21:24.485Z,50.30
2019-03-22T09:23:55.098Z,52.20
2019-03-22T09:26:25.711Z,49.83
2019-03-22T09:28:56.396Z,44.57
2019-03-22T09:31:27.059Z,46.43
2019-03-22T09:33:57.713Z,52.20
2019-03-22T09:36:31.524Z,46.50
2019-03-22T09:39:02.300Z,49.77
2019-03-22T09:41:33.601Z,49.10
2019-03-22T09:44:04.404Z,44.30
2019-03-22T09:46:35.155Z,43.47
2019-03-22T09:49:07.527Z,40.37
2019-03-22T09:51:38.228Z,42.93
2019-03-22T09:54:08.881Z,39.83
2019-03-22T09:56:46.974Z,39.60
2019-03-22T09:59:12.004Z,41.33
2019-03-22T10:01:42.674Z,39.90
2019-03-22T10:04:13.459Z,36.57
2019-03-22T10:06:47.286Z,35.43
2019-03-22T10:09:18.014Z,42.93
2019-03-22T10:11:48.715Z,37.10
2019-03-22T10:14:21.411Z,33.97
2019-03-22T10:16:51.694Z,40.67
2019-03-22T10:19:22.338Z,33.27
2019-03-22T10:21:52.927Z,35.47
2019-03-22T10:24:23.582Z,31.40
2019-03-22T10:26:54.234Z,29.63
2019-03-22T10:29:24.915Z,29.90
2019-03-22T10:31:55.631Z,29.20
2019-03-22T10:34:26.266Z,27.53
2019-03-22T10:36:57.051Z,27.50
2019-03-22T10:39:27.685Z,25.17
2019-03-22T10:41:59.384Z,24.43
2019-03-22T10:44:30.132Z,24.13
2019-03-22T10:47:00.858Z,21.70
2019-03-22T10:49:34.013Z,20.90
2019-03-22T10:52:04.782Z,18.23
2019-03-22T10:54:35.462Z,15.70
2019-03-22T10:57:06.096Z,17.97
2019-03-22T10:59:36.873Z,15.03
2019-03-22T11:02:07.992Z,14.63
2019-03-22T11:04:38.702Z,12.53
2019-03-22T11:07:09.385Z,13.30
2019-03-22T11:09:40.006Z,15.43
2019-03-22T11:12:12.537Z,12.83
2019-03-22T11:14:42.987Z,13.20
2019-03-22T11:17:13.562Z,13.33
2019-03-22T11:19:44.234Z,15.33
2019-03-22T11:22:17.847Z,14.07
2019-03-22T11:24:48.460Z,13.00
2019-03-22T11:27:19.095Z,13.87
2019-03-22T11:29:49.766Z,13.50
2019-03-22T11:32:20.390Z,13.50
2019-03-22T11:34:51.848Z,14.33
2019-03-22T11:37:22.452Z,14.33
2019-03-22T11:39:53.683Z,13.30
2019-03-22T11:42:24.297Z,13.57
2019-03-22T11:44:54.930Z,25.70
2019-03-22T11:47:25.543Z,14.43
2019-03-22T11:49:56.276Z,14.13
2019-03-22T11:52:26.939Z,8.97
2019-03-22T11:54:57.543Z,12.50
2019-03-22T11:57:28.173Z,14.47
2019-03-22T11:59:58.841Z,20.77
2019-03-22T12:02:29.491Z,10.33
2019-03-22T12:05:00.357Z,9.83
2019-03-22T12:07:30.971Z,16.27
2019-03-22T12:10:01.582Z,11.40
2019-03-22T12:12:32.191Z,15.33
2019-03-22T12:15:02.819Z,12.07
2019-03-22T12:17:35.539Z,9.83
2019-03-22T12:20:08.245Z,10.73
2019-03-22T12:22:38.867Z,12.03
2019-03-22T12:25:10.622Z,10.23
2019-03-22T12:27:41.317Z,11.17
2019-03-22T12:30:14.692Z,11.93
2019-03-22T12:32:45.490Z,24.27
2019-03-22T12:35:17.252Z,13.13
2019-03-22T12:37:47.916Z,23.77
2019-03-22T12:40:19.427Z,20.27
2019-03-22T12:42:50.212Z,19.90
2019-03-22T12:45:22.786Z,9.70
2019-03-22T12:47:53.416Z,14.83
2019-03-22T12:50:24.563Z,11.57
2019-03-22T12:52:55.161Z,19.50
2019-03-22T12:55:25.895Z,13.50
2019-03-22T12:57:56.577Z,15.97
2019-03-22T13:00:27.314Z,12.97
2019-03-22T13:02:58.675Z,12.47
2019-03-22T13:05:29.291Z,11.13
2019-03-22T13:07:59.860Z,13.87
2019-03-22T13:10:30.641Z,15.23
2019-03-22T13:13:01.252Z,14.03
2019-03-22T13:15:31.903Z,13.70
2019-03-22T13:18:02.551Z,12.90
2019-03-22T13:20:33.263Z,13.40
2019-03-22T13:23:03.938Z,16.00
2019-03-22T13:25:34.683Z,13.57
2019-03-22T13:28:05.317Z,13.37
2019-03-22T13:30:37.225Z,13.43
2019-03-22T13:33:08.896Z,15.10
2019-03-22T13:35:39.566Z,16.00
2019-03-22T13:38:10.230Z,15.73
2019-03-22T13:40:40.963Z,14.67
2019-03-22T13:43:11.598Z,11.27
2019-03-22T13:45:42.232Z,12.20
2019-03-22T13:48:12.855Z,20.17
2019-03-22T13:50:43.538Z,11.40
2019-03-22T13:53:14.161Z,11.40
2019-03-22T13:55:44.782Z,13.60
2019-03-22T13:58:15.412Z,14.60
2019-03-22T14:00:46.095Z,12.07
2019-03-22T14:03:16.770Z,12.13
2019-03-22T14:05:47.398Z,11.83
2019-03-22T14:08:18.219Z,12.70
2019-03-22T14:10:48.967Z,13.83
2019-03-22T14:13:19.631Z,11.90
2019-03-22T14:15:50.330Z,17.20
2019-03-22T14:18:20.963Z,14.43
2019-03-22T14:20:51.568Z,13.40
2019-03-22T14:23:22.178Z,12.67
2019-03-22T14:25:52.883Z,14.73
2019-03-22T14:28:23.551Z,11.33
2019-03-22T14:30:54.193Z,11.93
2019-03-22T14:33:24.874Z,13.23
2019-03-22T14:35:55.516Z,15.43
2019-03-22T14:38:26.124Z,12.27
2019-03-22T14:40:56.767Z,12.30
2019-03-22T14:43:27.363Z,14.23
2019-03-22T14:45:57.993Z,14.47
2019-03-22T14:48:28.668Z,15.27
2019-03-22T14:50:59.545Z,13.27
2019-03-22T14:53:30.114Z,12.70
2019-03-22T14:56:00.734Z,11.40
2019-03-22T14:58:31.355Z,12.77
2019-03-22T15:01:01.941Z,12.23
2019-03-22T15:03:32.546Z,12.77
2019-03-22T15:06:03.169Z,12.60
2019-03-22T15:08:33.780Z,12.80
2019-03-22T15:11:04.508Z,11.13
2019-03-22T15:13:39.364Z,11.47
2019-03-22T15:16:29.178Z,14.13
2019-03-22T15:19:18.763Z,11.93
2019-03-22T15:22:23.689Z,11.33
2019-03-22T15:25:24.200Z,12.13
2019-03-22T15:28:13.984Z,11.83
2019-03-22T15:31:02.194Z,11.50
2019-03-22T15:33:42.577Z,13.33
2019-03-22T15:36:44.253Z,12.20
2019-03-22T15:39:27.195Z,12.77
2019-03-22T15:41:57.990Z,12.33
2019-03-22T15:44:28.657Z,11.50
2019-03-22T15:46:59.296Z,11.73
2019-03-22T15:49:30.022Z,12.50
2019-03-22T15:52:00.595Z,10.77
2019-03-22T15:54:31.219Z,11.03
2019-03-22T15:57:01.860Z,10.70
2019-03-22T15:59:32.519Z,12.53
2019-03-22T16:02:03.134Z,14.73
2019-03-22T16:04:33.730Z,13.13
2019-03-22T16:07:04.349Z,13.23
2019-03-22T16:09:35.264Z,12.80
2019-03-22T16:12:06.064Z,12.93
2019-03-22T16:14:36.725Z,12.50
2019-03-22T16:17:12.089Z,11.60
2019-03-22T16:19:43.895Z,11.63
2019-03-22T16:22:14.506Z,11.40
2019-03-22T16:24:45.520Z,9.93
2019-03-22T16:27:16.164Z,9.05
2019-03-22T16:29:47.769Z,9.33
2019-03-22T16:32:18.439Z,9.73
2019-03-22T16:34:49.160Z,8.80
2019-03-22T16:37:19.894Z,9.57
2019-03-22T16:39:50.619Z,9.07
2019-03-22T16:42:21.321Z,10.50
2019-03-22T16:44:51.922Z,8.53
2019-03-22T16:47:22.588Z,8.43
2019-03-22T16:49:53.665Z,7.53
2019-03-22T16:52:24.364Z,8.55
2019-03-22T16:54:54.907Z,9.68
2019-03-22T16:57:25.686Z,9.20
2019-03-22T16:59:56.550Z,10.10
2019-03-22T17:02:27.129Z,9.10
2019-03-22T17:04:58.623Z,9.27
2019-03-22T17:07:29.423Z,10.63
2019-03-22T17:10:00.107Z,8.97
2019-03-22T17:12:31.222Z,8.13
2019-03-22T17:15:04.653Z,7.53
2019-03-22T17:17:36.423Z,7.70
2019-03-22T17:20:07.524Z,7.80
2019-03-22T17:22:38.162Z,9.03
2019-03-22T17:25:09.416Z,7.47
2019-03-22T17:27:39.987Z,7.53
2019-03-22T17:30:12.114Z,8.07
2019-03-22T17:32:42.832Z,9.80
2019-03-22T17:35:16.216Z,9.87
2019-03-22T17:37:46.951Z,8.90
2019-03-22T17:40:18.533Z,9.70
2019-03-22T17:42:49.284Z,11.83
2019-03-22T17:45:20.834Z,12.63
2019-03-22T17:47:51.491Z,13.83
2019-03-22T17:50:22.120Z,11.87
2019-03-22T17:52:52.729Z,14.53
2019-03-22T17:55:23.436Z,14.00
2019-03-22T17:57:54.198Z,12.00
2019-03-22T18:00:26.127Z,11.93
2019-03-22T18:02:56.765Z,14.70
2019-03-22T18:05:27.558Z,14.67
2019-03-22T18:07:58.282Z,14.77
2019-03-22T18:10:28.983Z,16.93
2019-03-22T18:12:59.661Z,16.73
2019-03-22T18:15:30.260Z,17.03
2019-03-22T18:18:00.875Z,16.07
2019-03-22T18:20:31.619Z,13.87
2019-03-22T18:23:02.354Z,14.33
2019-03-22T18:25:32.966Z,14.47
2019-03-22T18:28:03.514Z,14.03
2019-03-22T18:30:34.139Z,14.47
2019-03-22T18:33:04.733Z,15.70
2019-03-22T18:35:35.389Z,14.10
2019-03-22T18:38:05.984Z,12.80
2019-03-22T18:40:36.740Z,12.53
2019-03-22T18:43:07.334Z,13.40
2019-03-22T18:45:37.914Z,15.73
2019-03-22T18:48:08.541Z,16.00
2019-03-22T18:50:39.199Z,17.87
2019-03-22T18:53:10.024Z,16.77
2019-03-22T18:55:40.620Z,15.97
2019-03-22T18:58:13.532Z,16.47
2019-03-22T19:00:44.213Z,18.73
2019-03-22T19:03:14.823Z,19.73
2019-03-22T19:05:45.690Z,15.50
2019-03-22T19:08:16.479Z,16.83
2019-03-22T19:10:47.130Z,18.37
2019-03-22T19:13:17.806Z,20.57
2019-03-22T19:15:48.484Z,17.73
2019-03-22T19:18:19.124Z,20.50
2019-03-22T19:20:49.840Z,21.80
2019-03-22T19:23:20.467Z,21.70
2019-03-22T19:25:51.114Z,22.57
2019-03-22T19:28:21.771Z,23.63
2019-03-22T19:30:52.550Z,24.23
2019-03-22T19:33:23.279Z,25.80
2019-03-22T19:35:54.000Z,27.30
2019-03-22T19:38:25.024Z,26.47
2019-03-22T19:40:55.717Z,25.33
2019-03-22T19:43:26.401Z,22.73
2019-03-22T19:45:56.998Z,24.97
2019-03-22T19:48:27.595Z,32.23
2019-03-22T19:50:58.292Z,30.33
2019-03-22T19:53:28.993Z,38.07
2019-03-22T19:55:59.555Z,38.40
2019-03-22T19:58:30.278Z,35.37
2019-03-22T20:01:00.874Z,35.43
2019-03-22T20:03:31.532Z,34.50
2019-03-22T20:06:02.249Z,38.80
2019-03-22T20:08:32.874Z,48.63
2019-03-22T20:11:03.646Z,51.00
2019-03-22T20:13:37.240Z,54.87
2019-03-22T20:16:07.876Z,47.63
2019-03-22T20:18:38.841Z,50.90
2019-03-22T20:21:09.470Z,50.87
2019-03-22T20:23:40.097Z,55.97
2019-03-22T20:26:10.774Z,59.57
2019-03-22T20:28:41.467Z,64.90
2019-03-22T20:31:12.122Z,66.03
2019-03-22T20:33:42.799Z,67.63
2019-03-22T20:36:13.534Z,70.00
2019-03-22T20:38:44.136Z,72.07
2019-03-22T20:41:14.760Z,67.07
2019-03-22T20:43:45.467Z,63.47
2019-03-22T20:46:16.084Z,71.70
2019-03-22T20:48:46.704Z,66.70
2019-03-22T20:51:17.366Z,74.37
2019-03-22T20:53:48.080Z,85.90
2019-03-22T20:56:18.661Z,75.30
2019-03-22T20:58:49.444Z,97.00
2019-03-22T21:01:20.014Z,96.67
2019-03-22T21:03:50.595Z,99.30
2019-03-22T21:06:21.197Z,91.07
2019-03-22T21:08:51.872Z,102.77
2019-03-22T21:11:22.554Z,92.70
2019-03-22T21:13:53.128Z,101.17
2019-03-22T21:16:23.713Z,96.03
2019-03-22T21:18:54.306Z,93.73
2019-03-22T21:21:35.680Z,92.77
2019-03-22T21:23:57.284Z,109.43
2019-03-22T21:26:27.900Z,95.10
2019-03-22T21:28:58.530Z,106.70
2019-03-22T21:31:29.187Z,107.07
2019-03-22T21:33:59.853Z,105.57
2019-03-22T21:36:30.510Z,121.97
2019-03-22T21:39:01.160Z,109.67
2019-03-22T21:41:31.787Z,132.50
2019-03-22T21:44:02.424Z,122.00
2019-03-22T21:46:33.120Z,126.20
2019-03-22T21:49:03.876Z,134.53
2019-03-22T21:51:34.432Z,136.90
2019-03-22T21:54:05.063Z,154.43
2019-03-22T21:56:35.654Z,147.13
2019-03-22T21:59:06.301Z,161.93
2019-03-22T22:01:38.692Z,151.47
2019-03-22T22:04:09.344Z,153.97
2019-03-22T22:06:40.436Z,152.10
2019-03-22T22:09:11.167Z,153.23
2019-03-22T22:11:41.721Z,160.20
2019-03-22T22:14:12.317Z,147.63
2019-03-22T22:16:42.907Z,139.40
2019-03-22T22:19:13.650Z,134.00
2019-03-22T22:21:44.309Z,164.30
2019-03-22T22:24:14.907Z,156.07
2019-03-22T22:26:45.653Z,162.23
2019-03-22T22:29:16.282Z,169.63
2019-03-22T22:31:46.977Z,173.23
2019-03-22T22:34:17.665Z,199.67
2019-03-22T22:36:48.349Z,184.80
2019-03-22T22:39:18.954Z,194.07
2019-03-22T22:41:49.531Z,197.83
2019-03-22T22:44:20.119Z,162.67
2019-03-22T22:46:50.787Z,193.53
2019-03-22T22:49:21.586Z,184.27
2019-03-22T22:51:52.307Z,179.87
2019-03-22T22:54:22.959Z,177.30
2019-03-22T22:56:53.531Z,189.93
2019-03-22T22:59:24.188Z,204.80
2019-03-22T23:01:54.816Z,229.03
2019-03-22T23:04:25.449Z,231.63
2019-03-22T23:06:55.987Z,231.90
2019-03-22T23:09:26.682Z,216.17
2019-03-22T23:11:57.439Z,240.63
2019-03-22T23:14:28.144Z,257.80
2019-03-22T23:16:58.832Z,218.97
2019-03-22T23:19:29.508Z,230.83
2019-03-22T23:22:00.168Z,266.13
2019-03-22T23:24:31.102Z,245.67
2019-03-22T23:27:01.742Z,246.80
2019-03-22T23:29:32.364Z,269.07
2019-03-22T23:32:02.949Z,249.33
2019-03-22T23:34:33.556Z,265.07
2019-03-22T23:37:04.137Z,253.60
2019-03-22T23:39:34.750Z,268.13
2019-03-22T23:42:05.428Z,245.17
2019-03-22T23:44:36.033Z,239.40
2019-03-22T23:47:06.843Z,246.70
2019-03-22T23:49:37.448Z,253.47
2019-03-22T23:52:08.150Z,266.37
2019-03-22T23:54:38.898Z,250.40
2019-03-22T23:57:09.523Z,242.80
2019-03-22T23:59:40.277Z,231.17
